Terminal Aerodrome Forecast
Issued by NWS Duluth, MN

Home | Current Version | Previous Version | Text Only | Print | Product List | Glossary On
Versions: 1 2 3 4 5 6 7 8 9 10 11 12 13 14 15 16 17 18 19 20 21
308
FTUS43 KDLH 220854 AAC
TAFDLH
TAF AMD
KDLH 220854Z 2209/2306 35005KT 3SM -DZ BR OVC003
     FM221000 03005KT 1SM -DZ BR OVC003
     FM221400 35003KT 2SM BR OVC003
     FM221600 34004KT 4SM BR OVC007
     FM230300 29005KT 1 1/2SM BR OVC004=

USA.gov is the U.S. government's official web portal to all federal, state and local government web resources and services.